createdAt,value
2023-02-20T00:01:35.012Z,-1.14
2023-02-20T00:05:00.966Z,-1.07
2023-02-20T00:08:26.693Z,-1.01
2023-02-20T00:11:52.591Z,-0.98
2023-02-20T00:15:19.574Z,-0.92
2023-02-20T00:18:45.753Z,-0.87
2023-02-20T00:22:11.662Z,-0.81
2023-02-20T00:25:37.614Z,-0.72
2023-02-20T00:29:04.343Z,-0.64
2023-02-20T00:32:29.947Z,-0.57
2023-02-20T00:35:56.877Z,-0.52
2023-02-20T00:39:22.604Z,-0.49
2023-02-20T00:42:48.615Z,-0.45
2023-02-20T00:46:14.893Z,-0.42
2023-02-20T00:49:40.802Z,-0.40
2023-02-20T00:53:09.271Z,-0.37
2023-02-20T00:56:35.108Z,-0.36
2023-02-20T01:00:00.786Z,-0.35
2023-02-20T01:03:26.588Z,-0.34
2023-02-20T01:06:51.933Z,-0.36
2023-02-20T01:10:17.600Z,-0.38
2023-02-20T01:13:43.311Z,-0.39
2023-02-20T01:17:09.135Z,-0.35
2023-02-20T01:20:35.131Z,-0.32
2023-02-20T01:24:00.995Z,-0.30
2023-02-20T01:27:26.733Z,-0.29
2023-02-20T01:30:52.399Z,-0.29
2023-02-20T01:34:09.496Z,-0.31
2023-02-20T01:37:35.286Z,-0.34
2023-02-20T01:41:01.079Z,-0.35
2023-02-20T01:44:27.795Z,-0.35
2023-02-20T01:47:55.295Z,-0.34
2023-02-20T01:51:20.867Z,-0.32
2023-02-20T01:54:48.823Z,-0.26
2023-02-20T01:58:16.483Z,-0.21
2023-02-20T02:01:42.803Z,-0.18
2023-02-20T02:05:10.359Z,-0.14
2023-02-20T02:08:37.796Z,-0.07
2023-02-20T02:12:03.488Z,-0.02
2023-02-20T02:15:29.184Z,0.04
2023-02-20T02:19:00.682Z,0.10
2023-02-20T02:22:40.471Z,0.15
2023-02-20T02:26:11.811Z,0.20
2023-02-20T02:29:48.521Z,0.22
2023-02-20T02:33:35.574Z,0.24
2023-02-20T02:37:04.174Z,0.26
2023-02-20T02:40:34.848Z,0.29
2023-02-20T02:44:01.507Z,0.29
2023-02-20T02:47:32.146Z,0.29
2023-02-20T02:50:59.211Z,0.32
2023-02-20T02:54:27.931Z,0.34
2023-02-20T02:57:53.592Z,0.35
2023-02-20T03:01:21.493Z,0.36
2023-02-20T03:04:48.557Z,0.35
2023-02-20T03:08:22.574Z,0.34
2023-02-20T03:11:49.343Z,0.34
2023-02-20T03:15:36.306Z,0.35
2023-02-20T03:19:03.821Z,0.39
2023-02-20T03:22:31.506Z,0.40
2023-02-20T03:25:59.656Z,0.39
2023-02-20T03:29:29.020Z,0.41
2023-02-20T03:33:15.542Z,0.43
2023-02-20T03:37:01.650Z,0.46
2023-02-20T03:40:45.725Z,0.48
2023-02-20T03:44:14.338Z,0.49
2023-02-20T03:47:42.346Z,0.49
2023-02-20T03:51:08.178Z,0.50
2023-02-20T03:54:36.238Z,0.52
2023-02-20T03:58:03.334Z,0.53
2023-02-20T04:01:29.147Z,0.56
2023-02-20T04:04:56.493Z,0.57
2023-02-20T04:08:24.492Z,0.58
2023-02-20T04:11:51.161Z,0.59
2023-02-20T04:15:17.180Z,0.61
2023-02-20T04:18:43.005Z,0.63
2023-02-20T04:22:11.290Z,0.67
2023-02-20T04:25:35.618Z,0.68
2023-02-20T04:29:01.307Z,0.68
2023-02-20T04:32:26.989Z,0.68
2023-02-20T04:35:54.167Z,0.69
2023-02-20T04:39:22.316Z,0.71
2023-02-20T04:42:47.855Z,0.73
2023-02-20T04:46:13.817Z,0.76
2023-02-20T04:49:39.991Z,0.77
2023-02-20T04:53:05.685Z,0.78
2023-02-20T04:56:31.319Z,0.80
2023-02-20T04:59:57.004Z,0.82
2023-02-20T05:03:22.696Z,0.84
2023-02-20T05:06:50.395Z,0.86
2023-02-20T05:10:08.690Z,0.85
2023-02-20T05:13:34.250Z,0.84
2023-02-20T05:17:00.016Z,0.82
2023-02-20T05:20:46.210Z,0.81
2023-02-20T05:24:12.018Z,0.80
2023-02-20T05:27:37.842Z,0.81
2023-02-20T05:31:03.488Z,0.82
2023-02-20T05:34:28.819Z,0.82
2023-02-20T05:37:54.392Z,0.83
2023-02-20T05:41:20.338Z,0.85
2023-02-20T05:44:46.194Z,0.87
2023-02-20T05:48:12.989Z,0.90
2023-02-20T05:51:38.556Z,0.93
2023-02-20T05:55:04.870Z,0.96
2023-02-20T05:58:30.741Z,0.98
2023-02-20T06:01:58.821Z,1.01
2023-02-20T06:05:24.853Z,1.04
2023-02-20T06:08:50.924Z,1.05
2023-02-20T06:12:16.881Z,1.07
2023-02-20T06:15:42.587Z,1.10
2023-02-20T06:19:08.488Z,1.12
2023-02-20T06:22:34.208Z,1.16
2023-02-20T06:25:59.802Z,1.18
2023-02-20T06:29:25.549Z,1.23
2023-02-20T06:32:51.339Z,1.26
2023-02-20T06:36:22.108Z,1.30
2023-02-20T06:39:49.420Z,1.33
2023-02-20T06:43:15.205Z,1.38
2023-02-20T06:46:41.204Z,1.43
2023-02-20T06:50:07.468Z,1.45
2023-02-20T06:53:38.164Z,1.48
2023-02-20T06:57:03.723Z,1.55
2023-02-20T07:00:29.692Z,1.64
2023-02-20T07:03:56.010Z,1.76
2023-02-20T07:07:22.020Z,1.90
2023-02-20T07:10:47.663Z,2.00
2023-02-20T07:14:14.055Z,2.11
2023-02-20T07:17:39.734Z,2.21
2023-02-20T07:21:05.776Z,2.30
2023-02-20T07:24:31.512Z,2.35
2023-02-20T07:27:57.394Z,2.38
2023-02-20T07:31:23.400Z,2.43
2023-02-20T07:35:02.992Z,2.49
2023-02-20T07:38:29.669Z,2.52
2023-02-20T07:41:55.661Z,2.57
2023-02-20T07:45:36.492Z,2.62
2023-02-20T07:49:02.843Z,2.62
2023-02-20T07:52:28.396Z,2.63
2023-02-20T07:55:53.974Z,2.68
2023-02-20T07:59:19.570Z,2.73
2023-02-20T08:02:45.275Z,2.76
2023-02-20T08:06:11.490Z,2.78
2023-02-20T08:09:37.499Z,2.80
2023-02-20T08:13:04.560Z,2.77
2023-02-20T08:16:20.396Z,2.76
2023-02-20T08:19:46.310Z,2.75
2023-02-20T08:23:17.508Z,2.74
2023-02-20T08:26:45.881Z,2.74
2023-02-20T08:30:12.379Z,2.77
2023-02-20T08:33:38.078Z,2.84
2023-02-20T08:36:56.471Z,2.97
2023-02-20T08:40:22.117Z,3.08
2023-02-20T08:43:48.076Z,3.26
2023-02-20T08:47:13.996Z,3.40
2023-02-20T08:50:38.101Z,3.51
2023-02-20T08:54:04.347Z,3.64
2023-02-20T08:57:30.116Z,3.76
2023-02-20T09:00:56.327Z,3.80
2023-02-20T09:04:23.725Z,3.86
2023-02-20T09:07:49.437Z,3.94
2023-02-20T09:11:15.611Z,3.99
2023-02-20T09:14:41.487Z,4.06
2023-02-20T09:18:19.727Z,4.20
2023-02-20T09:21:48.017Z,4.31
2023-02-20T09:25:13.866Z,4.37
2023-02-20T09:28:40.587Z,4.48
2023-02-20T09:32:06.588Z,4.55
2023-02-20T09:35:32.627Z,4.61
2023-02-20T09:38:58.293Z,4.65
2023-02-20T09:42:31.951Z,4.72
2023-02-20T09:46:00.306Z,4.88
2023-02-20T09:49:28.002Z,4.96
2023-02-20T09:52:58.878Z,4.96
2023-02-20T09:56:26.492Z,5.03
2023-02-20T09:59:53.701Z,5.14
2023-02-20T10:03:23.349Z,5.30
2023-02-20T10:06:51.918Z,5.41
2023-02-20T10:10:21.170Z,5.53
2023-02-20T10:13:53.964Z,5.62
2023-02-20T10:17:29.838Z,5.79
2023-02-20T10:21:00.341Z,6.01
2023-02-20T10:24:36.855Z,6.20
2023-02-20T10:28:04.876Z,6.40
2023-02-20T10:31:34.972Z,6.55
2023-02-20T10:35:04.726Z,6.67
2023-02-20T10:38:31.222Z,6.77
2023-02-20T10:42:00.044Z,6.90
2023-02-20T10:45:29.361Z,7.01
2023-02-20T10:48:57.809Z,7.10
2023-02-20T10:52:34.017Z,7.25
2023-02-20T10:56:02.237Z,7.39
2023-02-20T10:59:30.908Z,7.40
2023-02-20T11:02:59.040Z,7.47
2023-02-20T11:06:27.622Z,7.56
2023-02-20T11:09:53.314Z,7.65
2023-02-20T11:13:22.552Z,7.80
2023-02-20T11:16:52.349Z,7.94
2023-02-20T11:20:37.813Z,8.06
2023-02-20T11:24:18.307Z,8.06
2023-02-20T11:27:44.019Z,8.14
2023-02-20T11:31:10.139Z,8.23
2023-02-20T11:34:36.058Z,8.29
2023-02-20T11:38:18.565Z,8.41
2023-02-20T11:41:44.714Z,8.49
2023-02-20T11:45:17.743Z,8.55
2023-02-20T11:48:59.303Z,8.56
2023-02-20T11:52:25.200Z,8.50
2023-02-20T11:56:00.146Z,8.48
2023-02-20T11:59:29.433Z,8.43
2023-02-20T12:02:56.789Z,8.48
2023-02-20T12:06:38.831Z,8.49
2023-02-20T12:10:06.563Z,8.49
2023-02-20T12:13:36.017Z,8.47
2023-02-20T12:17:06.761Z,8.38
2023-02-20T12:20:32.884Z,8.32
2023-02-20T12:24:03.734Z,8.25
2023-02-20T12:27:35.792Z,8.21
2023-02-20T12:31:14.526Z,8.13
2023-02-20T12:34:49.536Z,8.08
2023-02-20T12:38:27.221Z,8.00
2023-02-20T12:41:57.579Z,7.98
2023-02-20T12:45:28.763Z,7.94
2023-02-20T12:49:05.883Z,7.94
2023-02-20T12:52:37.605Z,7.89
2023-02-20T12:56:10.878Z,7.88
2023-02-20T12:59:41.161Z,7.88
2023-02-20T13:03:11.161Z,7.89
2023-02-20T13:06:41.101Z,7.93
2023-02-20T13:10:09.263Z,7.98
2023-02-20T13:13:38.877Z,7.96
2023-02-20T13:17:09.997Z,7.96
2023-02-20T13:20:44.360Z,8.00
2023-02-20T13:24:29.229Z,8.01
2023-02-20T13:28:02.394Z,8.00
2023-02-20T13:31:43.472Z,7.97
2023-02-20T13:35:26.169Z,7.99
2023-02-20T13:39:20.395Z,8.00
2023-02-20T13:42:46.040Z,8.03
2023-02-20T13:46:20.337Z,8.05
2023-02-20T13:49:59.933Z,8.07
2023-02-20T13:53:25.514Z,8.07
2023-02-20T13:56:54.763Z,8.03
2023-02-20T14:00:28.393Z,8.03
2023-02-20T14:04:03.059Z,8.04
2023-02-20T14:07:37.452Z,8.05
2023-02-20T14:11:07.290Z,8.07
2023-02-20T14:14:34.812Z,8.09
2023-02-20T14:18:00.900Z,8.06
2023-02-20T14:21:26.843Z,8.06
2023-02-20T14:25:03.481Z,8.06
2023-02-20T14:28:29.674Z,8.08
2023-02-20T14:31:57.333Z,8.09
2023-02-20T14:35:43.190Z,8.09
2023-02-20T14:39:18.733Z,8.12
2023-02-20T14:42:45.857Z,8.16
2023-02-20T14:46:21.788Z,8.15
2023-02-20T14:49:47.416Z,8.16
2023-02-20T14:53:14.221Z,8.16
2023-02-20T14:56:39.778Z,8.17
2023-02-20T15:00:13.624Z,8.13
2023-02-20T15:03:39.213Z,8.11
2023-02-20T15:07:07.427Z,8.09
2023-02-20T15:10:39.518Z,8.09
2023-02-20T15:14:05.455Z,8.06
2023-02-20T15:17:32.481Z,8.03
2023-02-20T15:20:58.457Z,8.02
2023-02-20T15:24:34.826Z,8.03
2023-02-20T15:28:11.298Z,8.07
2023-02-20T15:31:37.150Z,8.08
2023-02-20T15:35:03.144Z,8.09
2023-02-20T15:38:31.218Z,8.08
2023-02-20T15:45:26.797Z,8.08
2023-02-20T15:48:52.724Z,8.07
2023-02-20T15:52:20.620Z,8.06
2023-02-20T15:55:46.738Z,8.07
2023-02-20T15:59:13.156Z,8.07
2023-02-20T16:02:39.071Z,8.08
2023-02-20T16:06:05.333Z,8.07
2023-02-20T16:09:31.349Z,8.06
2023-02-20T16:12:57.953Z,8.04
2023-02-20T16:16:25.756Z,8.04
2023-02-20T16:19:51.622Z,8.04
2023-02-20T16:23:17.741Z,8.04
2023-02-20T16:26:47.505Z,8.04
2023-02-20T16:30:31.865Z,8.05
2023-02-20T16:34:00.702Z,8.05
2023-02-20T16:37:31.275Z,8.05
2023-02-20T16:40:58.488Z,8.05
2023-02-20T16:44:25.360Z,8.05
2023-02-20T16:47:52.933Z,8.04
2023-02-20T16:51:21.702Z,8.03
2023-02-20T16:54:49.444Z,8.05
2023-02-20T16:58:23.532Z,8.06
2023-02-20T17:01:49.364Z,8.06
2023-02-20T17:05:15.447Z,8.07
2023-02-20T17:08:41.188Z,8.11
2023-02-20T17:12:07.533Z,8.13
2023-02-20T17:15:33.214Z,8.12
2023-02-20T17:18:59.093Z,8.11
2023-02-20T17:22:25.237Z,8.12
2023-02-20T17:25:50.940Z,8.11
2023-02-20T17:29:16.807Z,8.11
2023-02-20T17:32:42.580Z,8.10
2023-02-20T17:36:10.208Z,8.11
2023-02-20T17:39:36.444Z,8.13
2023-02-20T17:43:22.952Z,8.14
2023-02-20T17:46:49.823Z,8.13
2023-02-20T17:50:17.870Z,8.12
2023-02-20T17:53:43.547Z,8.10
2023-02-20T17:57:09.243Z,8.09
2023-02-20T18:00:35.344Z,8.09
2023-02-20T18:04:01.225Z,8.08
2023-02-20T18:07:27.038Z,8.10
2023-02-20T18:10:52.623Z,8.11
2023-02-20T18:14:20.486Z,8.11
2023-02-20T18:17:46.187Z,8.12
2023-02-20T18:21:18.185Z,8.12
2023-02-20T18:24:43.842Z,8.12
2023-02-20T18:28:09.904Z,8.12
2023-02-20T18:31:36.150Z,8.15
2023-02-20T18:35:01.922Z,8.16
2023-02-20T18:38:27.894Z,8.16
2023-02-20T18:41:54.422Z,8.18
2023-02-20T18:45:22.403Z,8.18
2023-02-20T18:48:48.914Z,8.16
2023-02-20T18:52:14.770Z,8.15
2023-02-20T18:55:40.638Z,8.15
2023-02-20T18:59:06.481Z,8.15
2023-02-20T19:02:33.573Z,8.14
2023-02-20T19:06:00.161Z,8.10
2023-02-20T19:09:26.380Z,8.07
2023-02-20T19:12:52.332Z,8.04
2023-02-20T19:16:18.484Z,8.02
2023-02-20T19:19:44.457Z,8.02
2023-02-20T19:23:10.236Z,7.97
2023-02-20T19:26:35.805Z,7.93
2023-02-20T19:30:01.401Z,7.89
2023-02-20T19:33:28.150Z,7.87
2023-02-20T19:36:54.745Z,7.84
2023-02-20T19:40:21.808Z,7.83
2023-02-20T19:43:48.543Z,7.83
2023-02-20T19:47:16.967Z,7.83
2023-02-20T19:50:42.708Z,7.84
2023-02-20T19:54:09.137Z,7.83
2023-02-20T19:58:21.979Z,7.86
2023-02-20T20:01:21.763Z,7.85
2023-02-20T20:04:47.409Z,7.83
2023-02-20T20:08:13.403Z,7.82
2023-02-20T20:11:39.493Z,7.79
2023-02-20T20:15:05.953Z,7.75
2023-02-20T20:18:31.658Z,7.68
2023-02-20T20:21:57.472Z,7.64
2023-02-20T20:25:24.175Z,7.62
2023-02-20T20:28:50.355Z,7.64
2023-02-20T20:32:17.541Z,7.64
2023-02-20T20:35:43.216Z,7.64
2023-02-20T20:39:09.020Z,7.61
2023-02-20T20:42:34.537Z,7.58
2023-02-20T20:46:00.859Z,7.56
2023-02-20T20:49:26.482Z,7.50
2023-02-20T20:52:52.210Z,7.39
2023-02-20T20:56:17.938Z,7.28
2023-02-20T20:59:47.697Z,7.21
2023-02-20T21:03:16.060Z,7.18
2023-02-20T21:06:41.860Z,7.18
2023-02-20T21:10:08.686Z,7.19
2023-02-20T21:13:34.253Z,7.21
2023-02-20T21:17:00.246Z,7.25
2023-02-20T21:20:27.557Z,7.29
2023-02-20T21:23:53.449Z,7.35
2023-02-20T21:27:19.277Z,7.44
2023-02-20T21:30:45.562Z,7.50
2023-02-20T21:34:13.271Z,7.57
2023-02-20T21:37:38.913Z,7.64
2023-02-20T21:41:05.204Z,7.68
2023-02-20T21:44:31.237Z,7.70
2023-02-20T21:47:56.963Z,7.75
2023-02-20T21:51:22.880Z,7.76
2023-02-20T21:54:50.411Z,7.77
2023-02-20T21:58:21.071Z,7.77
2023-02-20T22:01:45.507Z,7.77
2023-02-20T22:05:10.904Z,7.77
2023-02-20T22:08:54.152Z,7.80
2023-02-20T22:12:37.553Z,7.82
2023-02-20T22:16:20.477Z,7.80
2023-02-20T22:19:53.486Z,7.78
2023-02-20T22:23:36.412Z,7.78
2023-02-20T22:27:19.889Z,7.79
2023-02-20T22:31:03.184Z,7.80
2023-02-20T22:34:46.563Z,7.80
2023-02-20T22:38:29.751Z,7.77
2023-02-20T22:42:15.347Z,7.75
2023-02-20T22:45:59.906Z,7.74
2023-02-20T22:49:42.965Z,7.73
2023-02-20T22:53:26.098Z,7.74
2023-02-20T22:57:08.994Z,7.75
2023-02-20T23:00:52.656Z,7.76
2023-02-20T23:04:35.676Z,7.81
2023-02-20T23:08:18.891Z,7.85
2023-02-20T23:12:01.746Z,7.86
2023-02-20T23:15:45.171Z,7.89
2023-02-20T23:19:29.126Z,7.91
2023-02-20T23:23:12.667Z,7.91
2023-02-20T23:26:55.732Z,7.90
2023-02-20T23:30:38.791Z,7.90
2023-02-20T23:34:22.325Z,7.91
2023-02-20T23:38:07.654Z,7.95
2023-02-20T23:41:50.910Z,8.00
2023-02-20T23:45:34.337Z,8.03
2023-02-20T23:49:17.370Z,8.00
2023-02-20T23:53:00.196Z,7.95
2023-02-20T23:56:44.032Z,7.88
